Etusivu
METAR-TAF:

METAR-TAF

Lentoasemat :

Tahiti, Ranskan Polynesia

Faa'an kansainvälinen lentoasema

Leveyspiiri: 17-33S, Pituuspiiri: 149-37W, korkeus merenpinnasta: 2 m

Tämänhetkinen sää

Tämä raportti tehtiin 42 minuuttia sitten, kello 14.00 UTC
Tuuli 4 kn idästä
Lämpötila 24°C
Kosteus 74%
Ilmanpaine 1012 hPa
Näkyvyys 10 km tai enemmän

METAR: NTAA 201400Z AUTO 10004KT 9999 NCD 24/19 Q1012

Aika: 04:42 (14:42 UTC)

Sääennuste

Tämä raportti tehtiin 3 tuntia ja 42 minuuttia sitten, kello 11.00 UTC
Ennuste voimassa 20. päivästä klo 12 UTC - 21. päivään klo 18 UTC
Tuuli 2 kn eri suunnista
Näkyvyys 10 km tai enemmän
Muutamia pilviä 2500 ft:n korkeudessa
Hajanaisia pilviä 5000 ft:n korkeudessa
Tulossa
20. päivästä klo 19 UTC - 20. päivään klo 20 UTC
Tuuli 12 kn pohjoisesta/koillisesta
Tulossa
21. päivästä klo 02 UTC - 21. päivään klo 04 UTC
Tuuli 2 kn eri suunnista

TAF: NTAA 201100Z 2012/2118 VRB02KT 9999 FEW025 SCT050 BECMG 2019/2020 02012KT BECMG 2102/2104 VRB02KT

Säähavainnot ja -ennusteet yli 4000 lentoasemalta (METAR- ja TAF-raportit).

Käytössä olevat sääasemat on merkitty karttaan keltaisilla ja punaisilla pisteillä.

Aseta hiiri pisteen päälle nähdäksesi sääaseman nimen.

Klikkaa sitten nähdäksesi säähavainnot ja -ennusteet.

Kartan vaihtaminen: klikkaa mustalla rastilla varustettuja vihreitä pisteitä, niin voit zoomata sisään; viivalla varustettua vihreää pistettä, niin voit zoomata ulos tai vihreitä nuolia, niin pääset viereisille kartoille.


METAR-TAF: